sensor_id;sensor_type;location;lat;lon;timestamp;P1;durP1;ratioP1;P2;durP2;ratioP2
9940;SDS011;5009;50.656;7.188;2022-07-29T00:01:05;3.35;;;2.40;;
9940;SDS011;5009;50.656;7.188;2022-07-29T00:03:31;3.47;;;2.35;;
9940;SDS011;5009;50.656;7.188;2022-07-29T00:05:57;5.13;;;3.00;;
9940;SDS011;5009;50.656;7.188;2022-07-29T00:08:22;3.70;;;3.13;;
9940;SDS011;5009;50.656;7.188;2022-07-29T00:10:48;5.72;;;2.60;;
9940;SDS011;5009;50.656;7.188;2022-07-29T00:13:14;4.53;;;2.50;;
9940;SDS011;5009;50.656;7.188;2022-07-29T00:15:39;3.40;;;2.67;;
9940;SDS011;5009;50.656;7.188;2022-07-29T00:18:05;4.85;;;2.53;;
9940;SDS011;5009;50.656;7.188;2022-07-29T00:20:31;2.97;;;2.50;;
9940;SDS011;5009;50.656;7.188;2022-07-29T00:22:57;3.60;;;2.88;;
9940;SDS011;5009;50.656;7.188;2022-07-29T00:25:22;2.95;;;2.17;;
9940;SDS011;5009;50.656;7.188;2022-07-29T00:27:48;5.15;;;2.40;;
9940;SDS011;5009;50.656;7.188;2022-07-29T00:30:14;4.18;;;2.72;;
9940;SDS011;5009;50.656;7.188;2022-07-29T00:32:39;2.67;;;2.47;;
9940;SDS011;5009;50.656;7.188;2022-07-29T00:35:05;2.33;;;2.20;;
9940;SDS011;5009;50.656;7.188;2022-07-29T00:37:51;2.97;;;2.67;;
9940;SDS011;5009;50.656;7.188;2022-07-29T00:40:16;4.88;;;2.90;;
9940;SDS011;5009;50.656;7.188;2022-07-29T00:42:49;4.07;;;2.40;;
9940;SDS011;5009;50.656;7.188;2022-07-29T00:45:15;2.70;;;2.50;;
9940;SDS011;5009;50.656;7.188;2022-07-29T00:47:42;2.85;;;2.20;;
9940;SDS011;5009;50.656;7.188;2022-07-29T00:50:08;3.55;;;2.70;;
9940;SDS011;5009;50.656;7.188;2022-07-29T00:52:37;2.88;;;2.42;;
9940;SDS011;5009;50.656;7.188;2022-07-29T00:55:05;4.57;;;3.08;;
9940;SDS011;5009;50.656;7.188;2022-07-29T00:57:33;3.55;;;2.70;;
9940;SDS011;5009;50.656;7.188;2022-07-29T00:59:59;5.15;;;2.83;;
9940;SDS011;5009;50.656;7.188;2022-07-29T01:02:25;4.15;;;2.67;;
9940;SDS011;5009;50.656;7.188;2022-07-29T01:04:50;3.05;;;2.53;;
9940;SDS011;5009;50.656;7.188;2022-07-29T01:07:17;2.70;;;2.50;;
9940;SDS011;5009;50.656;7.188;2022-07-29T01:09:43;4.10;;;2.95;;
9940;SDS011;5009;50.656;7.188;2022-07-29T01:12:11;4.65;;;2.50;;
9940;SDS011;5009;50.656;7.188;2022-07-29T01:14:44;2.80;;;2.42;;
9940;SDS011;5009;50.656;7.188;2022-07-29T01:17:27;2.90;;;2.70;;
9940;SDS011;5009;50.656;7.188;2022-07-29T01:31:14;2.75;;;2.55;;
9940;SDS011;5009;50.656;7.188;2022-07-29T01:33:45;5.28;;;3.15;;
9940;SDS011;5009;50.656;7.188;2022-07-29T01:36:17;5.90;;;2.83;;
9940;SDS011;5009;50.656;7.188;2022-07-29T01:38:57;5.22;;;2.45;;
9940;SDS011;5009;50.656;7.188;2022-07-29T01:41:34;3.50;;;2.70;;
9940;SDS011;5009;50.656;7.188;2022-07-29T01:44:10;3.35;;;2.90;;
9940;SDS011;5009;50.656;7.188;2022-07-29T01:46:41;5.15;;;2.75;;
9940;SDS011;5009;50.656;7.188;2022-07-29T01:49:17;4.65;;;2.58;;
9940;SDS011;5009;50.656;7.188;2022-07-29T01:51:47;3.22;;;2.50;;
9940;SDS011;5009;50.656;7.188;2022-07-29T01:54:38;4.88;;;2.80;;
9940;SDS011;5009;50.656;7.188;2022-07-29T01:57:04;3.07;;;2.73;;
9940;SDS011;5009;50.656;7.188;2022-07-29T01:59:33;3.88;;;2.65;;
9940;SDS011;5009;50.656;7.188;2022-07-29T02:02:01;2.70;;;2.50;;
9940;SDS011;5009;50.656;7.188;2022-07-29T02:04:27;3.15;;;2.58;;
9940;SDS011;5009;50.656;7.188;2022-07-29T02:06:56;4.10;;;2.53;;
9940;SDS011;5009;50.656;7.188;2022-07-29T02:09:25;4.80;;;3.00;;
9940;SDS011;5009;50.656;7.188;2022-07-29T02:11:52;3.13;;;2.70;;
9940;SDS011;5009;50.656;7.188;2022-07-29T02:14:20;4.88;;;2.83;;
9940;SDS011;5009;50.656;7.188;2022-07-29T02:16:48;5.13;;;3.05;;
9940;SDS011;5009;50.656;7.188;2022-07-29T02:19:18;6.70;;;2.75;;
9940;SDS011;5009;50.656;7.188;2022-07-29T02:21:46;3.93;;;2.73;;
9940;SDS011;5009;50.656;7.188;2022-07-29T02:24:13;6.60;;;2.70;;
9940;SDS011;5009;50.656;7.188;2022-07-29T02:26:42;3.17;;;2.60;;
9940;SDS011;5009;50.656;7.188;2022-07-29T02:29:09;3.77;;;2.60;;
9940;SDS011;5009;50.656;7.188;2022-07-29T02:31:35;4.53;;;2.83;;
9940;SDS011;5009;50.656;7.188;2022-07-29T02:34:03;4.53;;;2.67;;
9940;SDS011;5009;50.656;7.188;2022-07-29T02:36:33;3.47;;;3.00;;
9940;SDS011;5009;50.656;7.188;2022-07-29T02:39:00;6.73;;;2.93;;
9940;SDS011;5009;50.656;7.188;2022-07-29T02:41:30;3.53;;;3.00;;
9940;SDS011;5009;50.656;7.188;2022-07-29T02:44:03;3.50;;;2.70;;
9940;SDS011;5009;50.656;7.188;2022-07-29T02:46:34;4.33;;;2.93;;
9940;SDS011;5009;50.656;7.188;2022-07-29T02:49:07;4.27;;;2.63;;
9940;SDS011;5009;50.656;7.188;2022-07-29T02:54:37;3.27;;;2.40;;
9940;SDS011;5009;50.656;7.188;2022-07-29T02:57:11;3.27;;;2.93;;
9940;SDS011;5009;50.656;7.188;2022-07-29T02:59:43;2.83;;;2.30;;
9940;SDS011;5009;50.656;7.188;2022-07-29T03:02:12;3.53;;;2.70;;
9940;SDS011;5009;50.656;7.188;2022-07-29T03:04:40;4.33;;;3.00;;
9940;SDS011;5009;50.656;7.188;2022-07-29T03:07:07;3.97;;;3.00;;
9940;SDS011;5009;50.656;7.188;2022-07-29T03:09:34;3.10;;;2.80;;
9940;SDS011;5009;50.656;7.188;2022-07-29T03:12:01;3.33;;;2.97;;
9940;SDS011;5009;50.656;7.188;2022-07-29T03:14:29;3.83;;;2.90;;
9940;SDS011;5009;50.656;7.188;2022-07-29T03:16:56;5.90;;;3.27;;
9940;SDS011;5009;50.656;7.188;2022-07-29T03:19:22;3.10;;;2.80;;
9940;SDS011;5009;50.656;7.188;2022-07-29T03:21:47;4.40;;;3.00;;
9940;SDS011;5009;50.656;7.188;2022-07-29T03:26:56;6.60;;;3.30;;
9940;SDS011;5009;50.656;7.188;2022-07-29T03:29:22;3.00;;;2.70;;
9940;SDS011;5009;50.656;7.188;2022-07-29T03:31:48;6.70;;;3.17;;
9940;SDS011;5009;50.656;7.188;2022-07-29T03:34:13;3.30;;;3.00;;
9940;SDS011;5009;50.656;7.188;2022-07-29T03:36:39;3.90;;;3.30;;
9940;SDS011;5009;50.656;7.188;2022-07-29T03:39:04;4.70;;;3.10;;
9940;SDS011;5009;50.656;7.188;2022-07-29T03:41:31;4.13;;;2.90;;
9940;SDS011;5009;50.656;7.188;2022-07-29T03:43:59;3.77;;;3.20;;
9940;SDS011;5009;50.656;7.188;2022-07-29T03:46:25;5.17;;;3.00;;
9940;SDS011;5009;50.656;7.188;2022-07-29T03:48:55;3.60;;;2.50;;
9940;SDS011;5009;50.656;7.188;2022-07-29T03:51:27;4.07;;;2.97;;
9940;SDS011;5009;50.656;7.188;2022-07-29T03:53:53;3.60;;;2.80;;
9940;SDS011;5009;50.656;7.188;2022-07-29T03:56:21;3.50;;;2.87;;
9940;SDS011;5009;50.656;7.188;2022-07-29T03:58:51;3.47;;;2.57;;
9940;SDS011;5009;50.656;7.188;2022-07-29T04:01:18;3.23;;;2.60;;
9940;SDS011;5009;50.656;7.188;2022-07-29T04:03:45;6.67;;;3.03;;
9940;SDS011;5009;50.656;7.188;2022-07-29T04:06:11;5.50;;;3.20;;
9940;SDS011;5009;50.656;7.188;2022-07-29T04:08:37;3.17;;;2.90;;
9940;SDS011;5009;50.656;7.188;2022-07-29T04:11:03;6.30;;;2.70;;
9940;SDS011;5009;50.656;7.188;2022-07-29T04:13:29;6.97;;;2.90;;
9940;SDS011;5009;50.656;7.188;2022-07-29T04:15:55;4.53;;;3.17;;
9940;SDS011;5009;50.656;7.188;2022-07-29T04:18:20;3.30;;;3.00;;
9940;SDS011;5009;50.656;7.188;2022-07-29T04:20:46;5.17;;;3.30;;
9940;SDS011;5009;50.656;7.188;2022-07-29T04:23:12;4.00;;;3.03;;
9940;SDS011;5009;50.656;7.188;2022-07-29T04:25:38;3.13;;;2.83;;
9940;SDS011;5009;50.656;7.188;2022-07-29T04:28:04;4.23;;;2.80;;
9940;SDS011;5009;50.656;7.188;2022-07-29T04:30:31;3.00;;;2.73;;
9940;SDS011;5009;50.656;7.188;2022-07-29T04:32:58;4.17;;;2.77;;
9940;SDS011;5009;50.656;7.188;2022-07-29T04:35:25;4.37;;;3.10;;
9940;SDS011;5009;50.656;7.188;2022-07-29T04:37:51;3.97;;;2.90;;
9940;SDS011;5009;50.656;7.188;2022-07-29T04:40:17;4.80;;;2.90;;
9940;SDS011;5009;50.656;7.188;2022-07-29T04:42:43;4.23;;;3.00;;
9940;SDS011;5009;50.656;7.188;2022-07-29T04:45:08;5.43;;;2.80;;
9940;SDS011;5009;50.656;7.188;2022-07-29T04:47:34;4.23;;;2.70;;
9940;SDS011;5009;50.656;7.188;2022-07-29T04:50:00;4.63;;;2.80;;
9940;SDS011;5009;50.656;7.188;2022-07-29T04:52:26;4.90;;;3.10;;
9940;SDS011;5009;50.656;7.188;2022-07-29T04:54:51;6.35;;;2.67;;
9940;SDS011;5009;50.656;7.188;2022-07-29T04:57:18;5.78;;;2.65;;
9940;SDS011;5009;50.656;7.188;2022-07-29T04:59:43;4.47;;;3.20;;
9940;SDS011;5009;50.656;7.188;2022-07-29T05:02:09;5.07;;;3.35;;
9940;SDS011;5009;50.656;7.188;2022-07-29T05:04:34;8.35;;;3.38;;
9940;SDS011;5009;50.656;7.188;2022-07-29T05:07:00;5.32;;;3.00;;
9940;SDS011;5009;50.656;7.188;2022-07-29T05:09:25;6.10;;;3.28;;
9940;SDS011;5009;50.656;7.188;2022-07-29T05:11:51;3.50;;;2.58;;
9940;SDS011;5009;50.656;7.188;2022-07-29T05:14:17;2.67;;;2.45;;
9940;SDS011;5009;50.656;7.188;2022-07-29T05:16:42;3.45;;;2.53;;
9940;SDS011;5009;50.656;7.188;2022-07-29T05:19:08;4.88;;;2.90;;
9940;SDS011;5009;50.656;7.188;2022-07-29T05:21:34;4.50;;;2.97;;
9940;SDS011;5009;50.656;7.188;2022-07-29T05:23:59;3.47;;;2.83;;
9940;SDS011;5009;50.656;7.188;2022-07-29T05:26:25;3.85;;;2.90;;
9940;SDS011;5009;50.656;7.188;2022-07-29T05:28:50;4.28;;;3.10;;
9940;SDS011;5009;50.656;7.188;2022-07-29T05:31:16;4.13;;;2.70;;
9940;SDS011;5009;50.656;7.188;2022-07-29T05:33:42;5.43;;;2.40;;
9940;SDS011;5009;50.656;7.188;2022-07-29T05:36:07;6.55;;;2.72;;
9940;SDS011;5009;50.656;7.188;2022-07-29T05:38:33;6.30;;;2.85;;
9940;SDS011;5009;50.656;7.188;2022-07-29T05:41:00;3.03;;;2.80;;
9940;SDS011;5009;50.656;7.188;2022-07-29T05:43:26;6.57;;;3.30;;
9940;SDS011;5009;50.656;7.188;2022-07-29T05:45:52;4.53;;;3.38;;
9940;SDS011;5009;50.656;7.188;2022-07-29T05:48:18;5.60;;;3.00;;
9940;SDS011;5009;50.656;7.188;2022-07-29T05:50:44;4.03;;;2.80;;
9940;SDS011;5009;50.656;7.188;2022-07-29T05:53:09;3.17;;;2.88;;
9940;SDS011;5009;50.656;7.188;2022-07-29T05:55:35;5.15;;;2.95;;
9940;SDS011;5009;50.656;7.188;2022-07-29T05:58:00;5.30;;;2.95;;
9940;SDS011;5009;50.656;7.188;2022-07-29T06:00:26;4.13;;;3.00;;
9940;SDS011;5009;50.656;7.188;2022-07-29T06:02:51;4.05;;;3.00;;
9940;SDS011;5009;50.656;7.188;2022-07-29T06:05:17;4.28;;;3.15;;
9940;SDS011;5009;50.656;7.188;2022-07-29T06:07:43;5.25;;;3.15;;
9940;SDS011;5009;50.656;7.188;2022-07-29T06:10:09;5.30;;;2.80;;
9940;SDS011;5009;50.656;7.188;2022-07-29T06:12:35;3.13;;;2.80;;
9940;SDS011;5009;50.656;7.188;2022-07-29T06:15:01;5.50;;;2.90;;
9940;SDS011;5009;50.656;7.188;2022-07-29T06:17:26;4.35;;;2.60;;
9940;SDS011;5009;50.656;7.188;2022-07-29T06:19:52;4.00;;;2.90;;
9940;SDS011;5009;50.656;7.188;2022-07-29T06:22:18;6.22;;;3.13;;
9940;SDS011;5009;50.656;7.188;2022-07-29T06:24:44;3.75;;;3.10;;
9940;SDS011;5009;50.656;7.188;2022-07-29T06:27:10;3.40;;;3.20;;
9940;SDS011;5009;50.656;7.188;2022-07-29T06:29:36;4.95;;;3.38;;
9940;SDS011;5009;50.656;7.188;2022-07-29T06:32:01;4.38;;;3.70;;
9940;SDS011;5009;50.656;7.188;2022-07-29T06:34:27;4.70;;;3.58;;
9940;SDS011;5009;50.656;7.188;2022-07-29T06:36:53;4.53;;;3.10;;
9940;SDS011;5009;50.656;7.188;2022-07-29T06:39:19;7.18;;;3.65;;
9940;SDS011;5009;50.656;7.188;2022-07-29T06:41:48;5.88;;;3.33;;
9940;SDS011;5009;50.656;7.188;2022-07-29T06:44:14;3.88;;;3.47;;
9940;SDS011;5009;50.656;7.188;2022-07-29T06:46:40;4.85;;;3.45;;
9940;SDS011;5009;50.656;7.188;2022-07-29T06:49:06;6.75;;;3.78;;
9940;SDS011;5009;50.656;7.188;2022-07-29T06:51:32;5.70;;;3.60;;
9940;SDS011;5009;50.656;7.188;2022-07-29T06:53:58;7.25;;;3.75;;
9940;SDS011;5009;50.656;7.188;2022-07-29T06:56:24;7.78;;;3.58;;
9940;SDS011;5009;50.656;7.188;2022-07-29T06:58:49;6.90;;;3.65;;
9940;SDS011;5009;50.656;7.188;2022-07-29T07:01:15;6.45;;;3.55;;
9940;SDS011;5009;50.656;7.188;2022-07-29T07:03:41;6.15;;;3.70;;
9940;SDS011;5009;50.656;7.188;2022-07-29T07:06:06;4.63;;;3.30;;
9940;SDS011;5009;50.656;7.188;2022-07-29T07:08:32;6.85;;;3.63;;
9940;SDS011;5009;50.656;7.188;2022-07-29T07:10:58;4.93;;;3.60;;
9940;SDS011;5009;50.656;7.188;2022-07-29T07:13:24;7.78;;;3.70;;
9940;SDS011;5009;50.656;7.188;2022-07-29T07:15:50;6.22;;;3.47;;
9940;SDS011;5009;50.656;7.188;2022-07-29T07:18:17;10.25;;;3.95;;
9940;SDS011;5009;50.656;7.188;2022-07-29T07:20:43;4.57;;;4.13;;
9940;SDS011;5009;50.656;7.188;2022-07-29T07:23:09;8.55;;;3.67;;
9940;SDS011;5009;50.656;7.188;2022-07-29T07:25:35;9.90;;;3.90;;
9940;SDS011;5009;50.656;7.188;2022-07-29T07:28:01;10.93;;;3.30;;
9940;SDS011;5009;50.656;7.188;2022-07-29T07:30:28;8.20;;;3.70;;
9940;SDS011;5009;50.656;7.188;2022-07-29T07:32:54;6.32;;;3.50;;
9940;SDS011;5009;50.656;7.188;2022-07-29T07:35:20;8.02;;;3.70;;
9940;SDS011;5009;50.656;7.188;2022-07-29T07:37:46;5.47;;;4.03;;
9940;SDS011;5009;50.656;7.188;2022-07-29T07:40:12;5.97;;;3.35;;
9940;SDS011;5009;50.656;7.188;2022-07-29T07:42:39;6.90;;;3.90;;
9940;SDS011;5009;50.656;7.188;2022-07-29T07:45:05;4.50;;;3.75;;
9940;SDS011;5009;50.656;7.188;2022-07-29T07:47:33;9.60;;;3.95;;
9940;SDS011;5009;50.656;7.188;2022-07-29T07:50:00;7.47;;;3.95;;
9940;SDS011;5009;50.656;7.188;2022-07-29T07:52:25;6.35;;;3.85;;
9940;SDS011;5009;50.656;7.188;2022-07-29T07:54:51;5.80;;;4.28;;
9940;SDS011;5009;50.656;7.188;2022-07-29T07:57:17;6.97;;;3.80;;
9940;SDS011;5009;50.656;7.188;2022-07-29T07:59:43;9.48;;;3.97;;
9940;SDS011;5009;50.656;7.188;2022-07-29T08:02:09;5.82;;;3.88;;
9940;SDS011;5009;50.656;7.188;2022-07-29T08:04:34;9.18;;;4.57;;
9940;SDS011;5009;50.656;7.188;2022-07-29T08:07:00;5.95;;;4.15;;
9940;SDS011;5009;50.656;7.188;2022-07-29T08:09:28;4.75;;;3.65;;
9940;SDS011;5009;50.656;7.188;2022-07-29T08:11:54;8.05;;;3.97;;
9940;SDS011;5009;50.656;7.188;2022-07-29T08:14:21;6.07;;;3.58;;
9940;SDS011;5009;50.656;7.188;2022-07-29T08:16:46;4.55;;;3.80;;
9940;SDS011;5009;50.656;7.188;2022-07-29T08:19:12;7.45;;;3.55;;
9940;SDS011;5009;50.656;7.188;2022-07-29T08:21:38;4.00;;;3.10;;
9940;SDS011;5009;50.656;7.188;2022-07-29T08:24:04;6.28;;;3.20;;
9940;SDS011;5009;50.656;7.188;2022-07-29T08:26:49;5.63;;;3.20;;
9940;SDS011;5009;50.656;7.188;2022-07-29T08:29:14;3.42;;;3.05;;
9940;SDS011;5009;50.656;7.188;2022-07-29T08:31:41;7.13;;;3.63;;
9940;SDS011;5009;50.656;7.188;2022-07-29T08:34:06;6.15;;;3.40;;
9940;SDS011;5009;50.656;7.188;2022-07-29T08:36:32;5.90;;;3.53;;
9940;SDS011;5009;50.656;7.188;2022-07-29T08:38:59;5.97;;;3.08;;
9940;SDS011;5009;50.656;7.188;2022-07-29T08:41:25;6.55;;;3.15;;
9940;SDS011;5009;50.656;7.188;2022-07-29T08:43:51;4.93;;;3.25;;
9940;SDS011;5009;50.656;7.188;2022-07-29T08:46:17;5.82;;;3.35;;
9940;SDS011;5009;50.656;7.188;2022-07-29T08:48:44;6.78;;;3.50;;
9940;SDS011;5009;50.656;7.188;2022-07-29T08:51:12;4.65;;;2.92;;
9940;SDS011;5009;50.656;7.188;2022-07-29T08:53:43;3.78;;;2.90;;
9940;SDS011;5009;50.656;7.188;2022-07-29T08:56:12;7.30;;;3.10;;
9940;SDS011;5009;50.656;7.188;2022-07-29T08:58:39;5.30;;;3.00;;
9940;SDS011;5009;50.656;7.188;2022-07-29T09:01:05;4.78;;;2.85;;
9940;SDS011;5009;50.656;7.188;2022-07-29T09:03:32;7.53;;;3.20;;
9940;SDS011;5009;50.656;7.188;2022-07-29T09:06:01;6.70;;;3.08;;
9940;SDS011;5009;50.656;7.188;2022-07-29T09:08:27;4.18;;;3.15;;
9940;SDS011;5009;50.656;7.188;2022-07-29T09:10:53;5.20;;;3.20;;
9940;SDS011;5009;50.656;7.188;2022-07-29T09:13:21;2.72;;;2.53;;
9940;SDS011;5009;50.656;7.188;2022-07-29T09:15:47;3.60;;;3.00;;
9940;SDS011;5009;50.656;7.188;2022-07-29T09:18:29;5.93;;;3.03;;
9940;SDS011;5009;50.656;7.188;2022-07-29T09:21:01;3.55;;;3.13;;
9940;SDS011;5009;50.656;7.188;2022-07-29T09:26:32;3.78;;;3.20;;
9940;SDS011;5009;50.656;7.188;2022-07-29T09:29:01;2.80;;;2.60;;
9940;SDS011;5009;50.656;7.188;2022-07-29T09:31:38;5.38;;;3.17;;
9940;SDS011;5009;50.656;7.188;2022-07-29T09:34:05;3.72;;;3.03;;
9940;SDS011;5009;50.656;7.188;2022-07-29T09:36:42;4.03;;;2.90;;
9940;SDS011;5009;50.656;7.188;2022-07-29T09:39:08;3.15;;;2.85;;
9940;SDS011;5009;50.656;7.188;2022-07-29T09:41:50;3.72;;;3.33;;
9940;SDS011;5009;50.656;7.188;2022-07-29T09:44:21;4.60;;;2.72;;
9940;SDS011;5009;50.656;7.188;2022-07-29T09:46:57;6.35;;;3.25;;
9940;SDS011;5009;50.656;7.188;2022-07-29T09:49:30;6.25;;;3.05;;
9940;SDS011;5009;50.656;7.188;2022-07-29T09:52:00;3.95;;;3.15;;
9940;SDS011;5009;50.656;7.188;2022-07-29T09:54:28;5.28;;;3.28;;
9940;SDS011;5009;50.656;7.188;2022-07-29T09:56:59;6.53;;;3.10;;
9940;SDS011;5009;50.656;7.188;2022-07-29T09:59:24;9.02;;;3.22;;
9940;SDS011;5009;50.656;7.188;2022-07-29T10:01:51;3.28;;;3.00;;
9940;SDS011;5009;50.656;7.188;2022-07-29T10:04:17;3.20;;;3.00;;
9940;SDS011;5009;50.656;7.188;2022-07-29T10:06:59;3.67;;;3.33;;
9940;SDS011;5009;50.656;7.188;2022-07-29T10:09:26;3.40;;;3.10;;
9940;SDS011;5009;50.656;7.188;2022-07-29T10:12:08;3.45;;;3.15;;
9940;SDS011;5009;50.656;7.188;2022-07-29T10:14:36;5.53;;;3.20;;
9940;SDS011;5009;50.656;7.188;2022-07-29T10:17:03;3.97;;;2.95;;
9940;SDS011;5009;50.656;7.188;2022-07-29T10:19:30;3.65;;;2.70;;
9940;SDS011;5009;50.656;7.188;2022-07-29T10:22:00;5.50;;;3.00;;
9940;SDS011;5009;50.656;7.188;2022-07-29T10:24:28;3.58;;;3.28;;
9940;SDS011;5009;50.656;7.188;2022-07-29T10:26:55;3.03;;;2.83;;
9940;SDS011;5009;50.656;7.188;2022-07-29T10:29:23;6.15;;;3.33;;
9940;SDS011;5009;50.656;7.188;2022-07-29T10:31:53;3.00;;;2.80;;
9940;SDS011;5009;50.656;7.188;2022-07-29T10:42:56;5.95;;;3.17;;
9940;SDS011;5009;50.656;7.188;2022-07-29T10:45:28;4.53;;;3.20;;
9940;SDS011;5009;50.656;7.188;2022-07-29T10:48:04;5.22;;;3.55;;
9940;SDS011;5009;50.656;7.188;2022-07-29T10:53:22;6.47;;;3.25;;
9940;SDS011;5009;50.656;7.188;2022-07-29T10:55:48;3.88;;;3.13;;
9940;SDS011;5009;50.656;7.188;2022-07-29T10:58:22;4.25;;;3.33;;
9940;SDS011;5009;50.656;7.188;2022-07-29T11:00:51;5.20;;;3.47;;
9940;SDS011;5009;50.656;7.188;2022-07-29T11:06:06;6.50;;;3.60;;
9940;SDS011;5009;50.656;7.188;2022-07-29T11:08:32;4.95;;;3.40;;
9940;SDS011;5009;50.656;7.188;2022-07-29T11:14:01;9.23;;;3.53;;
9940;SDS011;5009;50.656;7.188;2022-07-29T11:16:31;8.85;;;3.88;;
9940;SDS011;5009;50.656;7.188;2022-07-29T11:19:28;5.00;;;3.60;;
9940;SDS011;5009;50.656;7.188;2022-07-29T11:21:54;5.90;;;3.70;;
9940;SDS011;5009;50.656;7.188;2022-07-29T11:24:21;7.38;;;3.30;;
9940;SDS011;5009;50.656;7.188;2022-07-29T11:30:03;9.30;;;3.95;;
9940;SDS011;5009;50.656;7.188;2022-07-29T11:32:37;7.07;;;3.45;;
9940;SDS011;5009;50.656;7.188;2022-07-29T11:38:23;7.15;;;3.55;;
9940;SDS011;5009;50.656;7.188;2022-07-29T11:43:52;4.40;;;3.47;;
9940;SDS011;5009;50.656;7.188;2022-07-29T11:49:11;5.80;;;3.80;;
9940;SDS011;5009;50.656;7.188;2022-07-29T11:51:38;8.57;;;3.40;;
9940;SDS011;5009;50.656;7.188;2022-07-29T11:54:04;5.47;;;4.00;;
9940;SDS011;5009;50.656;7.188;2022-07-29T11:56:33;6.13;;;3.65;;
9940;SDS011;5009;50.656;7.188;2022-07-29T11:59:05;4.47;;;3.22;;
9940;SDS011;5009;50.656;7.188;2022-07-29T12:01:34;6.78;;;4.10;;
9940;SDS011;5009;50.656;7.188;2022-07-29T12:04:06;7.88;;;3.72;;
9940;SDS011;5009;50.656;7.188;2022-07-29T12:06:33;10.82;;;4.10;;
9940;SDS011;5009;50.656;7.188;2022-07-29T12:08:59;5.97;;;4.13;;
9940;SDS011;5009;50.656;7.188;2022-07-29T12:11:25;5.07;;;3.58;;
9940;SDS011;5009;50.656;7.188;2022-07-29T12:13:51;8.20;;;4.10;;
9940;SDS011;5009;50.656;7.188;2022-07-29T12:16:16;7.32;;;4.18;;
9940;SDS011;5009;50.656;7.188;2022-07-29T12:18:42;6.78;;;4.13;;
9940;SDS011;5009;50.656;7.188;2022-07-29T12:21:23;4.05;;;3.63;;
9940;SDS011;5009;50.656;7.188;2022-07-29T12:23:53;5.60;;;3.67;;
9940;SDS011;5009;50.656;7.188;2022-07-29T12:26:20;5.78;;;4.00;;
9940;SDS011;5009;50.656;7.188;2022-07-29T12:28:46;8.32;;;3.85;;
9940;SDS011;5009;50.656;7.188;2022-07-29T12:31:15;5.85;;;3.67;;
9940;SDS011;5009;50.656;7.188;2022-07-29T12:33:41;3.67;;;3.38;;
9940;SDS011;5009;50.656;7.188;2022-07-29T12:36:07;5.75;;;4.10;;
9940;SDS011;5009;50.656;7.188;2022-07-29T12:38:34;9.90;;;4.15;;
9940;SDS011;5009;50.656;7.188;2022-07-29T12:41:00;6.32;;;4.03;;
9940;SDS011;5009;50.656;7.188;2022-07-29T12:43:26;8.85;;;4.32;;
9940;SDS011;5009;50.656;7.188;2022-07-29T12:45:56;5.22;;;3.70;;
9940;SDS011;5009;50.656;7.188;2022-07-29T12:51:00;6.63;;;4.00;;
9940;SDS011;5009;50.656;7.188;2022-07-29T12:53:28;7.45;;;3.90;;
9940;SDS011;5009;50.656;7.188;2022-07-29T12:55:55;4.97;;;3.75;;
9940;SDS011;5009;50.656;7.188;2022-07-29T12:58:28;6.25;;;3.45;;
9940;SDS011;5009;50.656;7.188;2022-07-29T13:01:03;5.93;;;3.58;;
9940;SDS011;5009;50.656;7.188;2022-07-29T13:03:43;4.43;;;3.40;;
9940;SDS011;5009;50.656;7.188;2022-07-29T13:09:11;5.20;;;3.50;;
9940;SDS011;5009;50.656;7.188;2022-07-29T13:11:42;5.03;;;3.40;;
9940;SDS011;5009;50.656;7.188;2022-07-29T13:14:10;5.57;;;3.60;;
9940;SDS011;5009;50.656;7.188;2022-07-29T13:16:59;7.75;;;3.60;;
9940;SDS011;5009;50.656;7.188;2022-07-29T13:19:47;4.53;;;3.40;;
9940;SDS011;5009;50.656;7.188;2022-07-29T13:22:24;3.55;;;3.05;;
9940;SDS011;5009;50.656;7.188;2022-07-29T13:24:51;4.50;;;3.50;;
9940;SDS011;5009;50.656;7.188;2022-07-29T13:27:28;7.78;;;3.30;;
9940;SDS011;5009;50.656;7.188;2022-07-29T13:29:55;3.63;;;3.13;;
9940;SDS011;5009;50.656;7.188;2022-07-29T13:32:23;7.47;;;3.85;;
9940;SDS011;5009;50.656;7.188;2022-07-29T13:34:50;3.65;;;3.30;;
9940;SDS011;5009;50.656;7.188;2022-07-29T13:37:16;4.65;;;3.20;;
9940;SDS011;5009;50.656;7.188;2022-07-29T13:39:42;6.53;;;3.03;;
9940;SDS011;5009;50.656;7.188;2022-07-29T13:42:08;5.70;;;3.30;;
9940;SDS011;5009;50.656;7.188;2022-07-29T13:44:34;5.93;;;3.70;;
9940;SDS011;5009;50.656;7.188;2022-07-29T13:47:00;5.60;;;3.78;;
9940;SDS011;5009;50.656;7.188;2022-07-29T13:49:26;4.40;;;3.42;;
9940;SDS011;5009;50.656;7.188;2022-07-29T13:51:52;5.97;;;3.85;;
9940;SDS011;5009;50.656;7.188;2022-07-29T13:54:18;4.95;;;3.72;;
9940;SDS011;5009;50.656;7.188;2022-07-29T13:56:44;3.88;;;3.25;;
9940;SDS011;5009;50.656;7.188;2022-07-29T13:59:10;5.60;;;3.50;;
9940;SDS011;5009;50.656;7.188;2022-07-29T14:01:37;5.53;;;3.88;;
9940;SDS011;5009;50.656;7.188;2022-07-29T14:04:02;3.88;;;3.38;;
9940;SDS011;5009;50.656;7.188;2022-07-29T14:06:28;3.47;;;3.15;;
9940;SDS011;5009;50.656;7.188;2022-07-29T14:08:54;4.70;;;3.60;;
9940;SDS011;5009;50.656;7.188;2022-07-29T14:11:20;4.90;;;3.15;;
9940;SDS011;5009;50.656;7.188;2022-07-29T14:13:45;3.95;;;3.53;;
9940;SDS011;5009;50.656;7.188;2022-07-29T14:16:11;4.40;;;3.45;;
9940;SDS011;5009;50.656;7.188;2022-07-29T14:18:37;5.95;;;3.33;;
9940;SDS011;5009;50.656;7.188;2022-07-29T14:21:02;5.90;;;3.42;;
9940;SDS011;5009;50.656;7.188;2022-07-29T14:23:28;3.95;;;3.38;;
9940;SDS011;5009;50.656;7.188;2022-07-29T14:25:54;5.57;;;3.72;;
9940;SDS011;5009;50.656;7.188;2022-07-29T14:28:19;6.78;;;3.30;;
9940;SDS011;5009;50.656;7.188;2022-07-29T14:30:45;5.85;;;3.22;;
9940;SDS011;5009;50.656;7.188;2022-07-29T14:33:11;4.22;;;3.38;;
9940;SDS011;5009;50.656;7.188;2022-07-29T14:35:37;6.95;;;3.65;;
9940;SDS011;5009;50.656;7.188;2022-07-29T14:38:02;4.43;;;3.10;;
9940;SDS011;5009;50.656;7.188;2022-07-29T14:40:28;6.30;;;3.30;;
9940;SDS011;5009;50.656;7.188;2022-07-29T14:42:53;5.50;;;3.50;;
9940;SDS011;5009;50.656;7.188;2022-07-29T14:45:19;5.85;;;3.95;;
9940;SDS011;5009;50.656;7.188;2022-07-29T14:47:45;4.35;;;3.00;;
9940;SDS011;5009;50.656;7.188;2022-07-29T14:50:10;5.55;;;3.55;;
9940;SDS011;5009;50.656;7.188;2022-07-29T14:52:37;4.07;;;2.92;;
9940;SDS011;5009;50.656;7.188;2022-07-29T14:55:02;5.82;;;3.25;;
9940;SDS011;5009;50.656;7.188;2022-07-29T14:57:29;4.57;;;3.10;;
9940;SDS011;5009;50.656;7.188;2022-07-29T14:59:54;4.95;;;3.38;;
9940;SDS011;5009;50.656;7.188;2022-07-29T15:02:20;4.70;;;3.25;;
9940;SDS011;5009;50.656;7.188;2022-07-29T15:04:46;5.13;;;3.38;;
9940;SDS011;5009;50.656;7.188;2022-07-29T15:07:13;5.63;;;3.05;;
9940;SDS011;5009;50.656;7.188;2022-07-29T15:09:39;4.72;;;3.75;;
9940;SDS011;5009;50.656;7.188;2022-07-29T15:12:04;5.50;;;3.42;;
9940;SDS011;5009;50.656;7.188;2022-07-29T15:14:30;6.40;;;3.35;;
9940;SDS011;5009;50.656;7.188;2022-07-29T15:16:56;4.15;;;3.70;;
9940;SDS011;5009;50.656;7.188;2022-07-29T15:19:22;3.42;;;3.20;;
9940;SDS011;5009;50.656;7.188;2022-07-29T15:21:48;5.50;;;3.53;;
9940;SDS011;5009;50.656;7.188;2022-07-29T15:24:13;6.65;;;3.10;;
9940;SDS011;5009;50.656;7.188;2022-07-29T15:26:39;5.65;;;3.83;;
9940;SDS011;5009;50.656;7.188;2022-07-29T15:29:05;4.38;;;3.60;;
9940;SDS011;5009;50.656;7.188;2022-07-29T15:31:31;6.55;;;3.88;;
9940;SDS011;5009;50.656;7.188;2022-07-29T15:34:00;8.27;;;3.85;;
9940;SDS011;5009;50.656;7.188;2022-07-29T15:36:25;3.67;;;3.38;;
9940;SDS011;5009;50.656;7.188;2022-07-29T15:38:54;5.50;;;3.72;;
9940;SDS011;5009;50.656;7.188;2022-07-29T15:41:21;8.63;;;3.60;;
9940;SDS011;5009;50.656;7.188;2022-07-29T15:43:47;6.55;;;3.83;;
9940;SDS011;5009;50.656;7.188;2022-07-29T15:46:13;6.30;;;3.95;;
9940;SDS011;5009;50.656;7.188;2022-07-29T15:48:58;5.25;;;3.58;;
9940;SDS011;5009;50.656;7.188;2022-07-29T15:51:24;5.75;;;3.70;;
9940;SDS011;5009;50.656;7.188;2022-07-29T15:53:50;11.10;;;4.60;;
9940;SDS011;5009;50.656;7.188;2022-07-29T15:56:15;5.82;;;4.15;;
9940;SDS011;5009;50.656;7.188;2022-07-29T15:58:41;5.85;;;4.05;;
9940;SDS011;5009;50.656;7.188;2022-07-29T16:01:07;5.57;;;3.60;;
9940;SDS011;5009;50.656;7.188;2022-07-29T16:03:33;6.63;;;3.70;;
9940;SDS011;5009;50.656;7.188;2022-07-29T16:05:58;7.25;;;4.30;;
9940;SDS011;5009;50.656;7.188;2022-07-29T16:08:24;5.80;;;3.80;;
9940;SDS011;5009;50.656;7.188;2022-07-29T16:10:49;5.97;;;4.15;;
9940;SDS011;5009;50.656;7.188;2022-07-29T16:13:15;4.05;;;3.65;;